Kellogg, Minnesota
Current Conditions -  °F | °C
As of 11:13 PM on Friday 24 Oct 2014 (Local Time) from KONA Reporting Station
Haze Haze  
Wind Chill: 14°   Ceiling: 600
Heat Index: 14°   Visibility: 5mi
Dew Point: 13°   Wind: 0mph
Humidity: 94%   Direction: NA
Pressure: 29.89"   Gusts: NA
Location:  44.31°N, 92°W
Report Text: KONA 250413Z AUTO 00000KT 5SM BR OVC006 14/13 A2989 RMK AO2
Loading
Personal Weather Stations






























Interactive Weather Map
Tropical Storm Tracking
New forecast layout! Learn more

10-Day Weather Forecast

Advertisements
Track Severe Weather on mobile